sensor_id;sensor_type;location;lat;lon;timestamp;P1;durP1;ratioP1;P2;durP2;ratioP2
56860;SDS011;42744;51.094;3.490;2023-07-29T00:01:19;2.97;;;2.33;;
56860;SDS011;42744;51.094;3.490;2023-07-29T00:03:46;4.13;;;2.77;;
56860;SDS011;42744;51.094;3.490;2023-07-29T00:06:11;4.80;;;2.60;;
56860;SDS011;42744;51.094;3.490;2023-07-29T00:08:37;4.03;;;2.70;;
56860;SDS011;42744;51.094;3.490;2023-07-29T00:11:03;2.60;;;2.20;;
56860;SDS011;42744;51.094;3.490;2023-07-29T00:13:29;4.03;;;2.50;;
56860;SDS011;42744;51.094;3.490;2023-07-29T00:15:55;3.10;;;2.37;;
56860;SDS011;42744;51.094;3.490;2023-07-29T00:18:22;3.43;;;3.00;;
56860;SDS011;42744;51.094;3.490;2023-07-29T00:20:48;3.87;;;2.60;;
56860;SDS011;42744;51.094;3.490;2023-07-29T00:23:16;6.53;;;3.63;;
56860;SDS011;42744;51.094;3.490;2023-07-29T00:25:44;4.53;;;2.93;;
56860;SDS011;42744;51.094;3.490;2023-07-29T00:28:11;5.50;;;2.93;;
56860;SDS011;42744;51.094;3.490;2023-07-29T00:30:38;5.60;;;3.03;;
56860;SDS011;42744;51.094;3.490;2023-07-29T00:33:04;3.40;;;2.87;;
56860;SDS011;42744;51.094;3.490;2023-07-29T00:35:30;4.20;;;3.20;;
56860;SDS011;42744;51.094;3.490;2023-07-29T00:37:56;4.43;;;3.00;;
56860;SDS011;42744;51.094;3.490;2023-07-29T00:40:22;5.03;;;2.87;;
56860;SDS011;42744;51.094;3.490;2023-07-29T00:42:49;6.93;;;2.70;;
56860;SDS011;42744;51.094;3.490;2023-07-29T00:45:15;3.90;;;2.70;;
56860;SDS011;42744;51.094;3.490;2023-07-29T00:47:43;6.17;;;2.97;;
56860;SDS011;42744;51.094;3.490;2023-07-29T00:50:09;5.33;;;2.70;;
56860;SDS011;42744;51.094;3.490;2023-07-29T00:52:37;5.90;;;2.47;;
56860;SDS011;42744;51.094;3.490;2023-07-29T00:55:04;3.40;;;2.60;;
56860;SDS011;42744;51.094;3.490;2023-07-29T00:57:31;4.07;;;3.00;;
56860;SDS011;42744;51.094;3.490;2023-07-29T00:59:58;4.13;;;2.73;;
56860;SDS011;42744;51.094;3.490;2023-07-29T01:02:26;3.77;;;2.63;;
56860;SDS011;42744;51.094;3.490;2023-07-29T01:04:56;4.77;;;2.43;;
56860;SDS011;42744;51.094;3.490;2023-07-29T01:07:26;3.30;;;2.70;;
56860;SDS011;42744;51.094;3.490;2023-07-29T01:10:22;4.73;;;2.50;;
56860;SDS011;42744;51.094;3.490;2023-07-29T01:13:10;3.70;;;2.90;;
56860;SDS011;42744;51.094;3.490;2023-07-29T01:15:55;4.80;;;3.10;;
56860;SDS011;42744;51.094;3.490;2023-07-29T01:18:26;5.37;;;2.97;;
56860;SDS011;42744;51.094;3.490;2023-07-29T01:21:03;3.80;;;3.13;;
56860;SDS011;42744;51.094;3.490;2023-07-29T01:23:31;4.13;;;3.33;;
56860;SDS011;42744;51.094;3.490;2023-07-29T01:25:59;5.10;;;3.43;;
56860;SDS011;42744;51.094;3.490;2023-07-29T01:28:25;4.90;;;3.47;;
56860;SDS011;42744;51.094;3.490;2023-07-29T01:30:59;5.17;;;3.20;;
56860;SDS011;42744;51.094;3.490;2023-07-29T01:33:42;3.87;;;3.17;;
56860;SDS011;42744;51.094;3.490;2023-07-29T01:36:19;4.13;;;3.30;;
56860;SDS011;42744;51.094;3.490;2023-07-29T01:38:48;8.30;;;3.53;;
56860;SDS011;42744;51.094;3.490;2023-07-29T01:41:16;4.57;;;3.20;;
56860;SDS011;42744;51.094;3.490;2023-07-29T01:43:43;5.33;;;3.67;;
56860;SDS011;42744;51.094;3.490;2023-07-29T01:46:15;5.57;;;3.70;;
56860;SDS011;42744;51.094;3.490;2023-07-29T01:48:41;6.27;;;3.07;;
56860;SDS011;42744;51.094;3.490;2023-07-29T01:51:08;4.80;;;3.20;;
56860;SDS011;42744;51.094;3.490;2023-07-29T01:53:37;4.97;;;2.97;;
56860;SDS011;42744;51.094;3.490;2023-07-29T01:56:02;5.67;;;3.40;;
56860;SDS011;42744;51.094;3.490;2023-07-29T01:58:30;5.70;;;3.27;;
56860;SDS011;42744;51.094;3.490;2023-07-29T02:00:57;5.87;;;2.80;;
56860;SDS011;42744;51.094;3.490;2023-07-29T02:03:23;6.77;;;3.10;;
56860;SDS011;42744;51.094;3.490;2023-07-29T02:05:49;5.47;;;3.30;;
56860;SDS011;42744;51.094;3.490;2023-07-29T02:08:15;4.10;;;2.90;;
56860;SDS011;42744;51.094;3.490;2023-07-29T02:10:41;3.27;;;2.83;;
56860;SDS011;42744;51.094;3.490;2023-07-29T02:13:11;6.07;;;3.57;;
56860;SDS011;42744;51.094;3.490;2023-07-29T02:15:37;5.77;;;3.30;;
56860;SDS011;42744;51.094;3.490;2023-07-29T02:18:03;5.17;;;3.40;;
56860;SDS011;42744;51.094;3.490;2023-07-29T02:20:29;6.27;;;3.63;;
56860;SDS011;42744;51.094;3.490;2023-07-29T02:22:55;6.60;;;3.70;;
56860;SDS011;42744;51.094;3.490;2023-07-29T02:25:21;3.90;;;2.70;;
56860;SDS011;42744;51.094;3.490;2023-07-29T02:27:47;5.03;;;3.23;;
56860;SDS011;42744;51.094;3.490;2023-07-29T02:30:13;5.20;;;2.97;;
56860;SDS011;42744;51.094;3.490;2023-07-29T02:32:39;7.57;;;3.53;;
56860;SDS011;42744;51.094;3.490;2023-07-29T02:35:05;6.57;;;3.20;;
56860;SDS011;42744;51.094;3.490;2023-07-29T02:37:31;5.37;;;3.20;;
56860;SDS011;42744;51.094;3.490;2023-07-29T02:39:57;6.73;;;3.83;;
56860;SDS011;42744;51.094;3.490;2023-07-29T02:42:24;4.77;;;3.57;;
56860;SDS011;42744;51.094;3.490;2023-07-29T02:44:50;4.80;;;3.20;;
56860;SDS011;42744;51.094;3.490;2023-07-29T02:47:16;5.53;;;3.20;;
56860;SDS011;42744;51.094;3.490;2023-07-29T02:49:42;5.47;;;3.10;;
56860;SDS011;42744;51.094;3.490;2023-07-29T02:52:07;3.80;;;3.00;;
56860;SDS011;42744;51.094;3.490;2023-07-29T02:54:33;4.50;;;3.40;;
56860;SDS011;42744;51.094;3.490;2023-07-29T02:56:59;6.80;;;3.27;;
56860;SDS011;42744;51.094;3.490;2023-07-29T02:59:26;4.63;;;3.43;;
56860;SDS011;42744;51.094;3.490;2023-07-29T03:01:52;5.47;;;3.73;;
56860;SDS011;42744;51.094;3.490;2023-07-29T03:04:19;5.37;;;3.70;;
56860;SDS011;42744;51.094;3.490;2023-07-29T03:06:45;7.50;;;3.63;;
56860;SDS011;42744;51.094;3.490;2023-07-29T03:09:13;4.57;;;3.03;;
56860;SDS011;42744;51.094;3.490;2023-07-29T03:11:39;4.23;;;3.20;;
56860;SDS011;42744;51.094;3.490;2023-07-29T03:14:05;6.27;;;3.40;;
56860;SDS011;42744;51.094;3.490;2023-07-29T03:16:31;5.13;;;3.47;;
56860;SDS011;42744;51.094;3.490;2023-07-29T03:18:57;5.63;;;3.43;;
56860;SDS011;42744;51.094;3.490;2023-07-29T03:21:25;4.80;;;3.27;;
56860;SDS011;42744;51.094;3.490;2023-07-29T03:23:51;6.13;;;3.40;;
56860;SDS011;42744;51.094;3.490;2023-07-29T03:26:17;5.60;;;3.13;;
56860;SDS011;42744;51.094;3.490;2023-07-29T03:28:43;4.13;;;2.93;;
56860;SDS011;42744;51.094;3.490;2023-07-29T03:31:10;4.93;;;3.33;;
56860;SDS011;42744;51.094;3.490;2023-07-29T03:33:36;5.07;;;3.57;;
56860;SDS011;42744;51.094;3.490;2023-07-29T03:36:02;4.47;;;3.40;;
56860;SDS011;42744;51.094;3.490;2023-07-29T03:38:28;4.17;;;3.30;;
56860;SDS011;42744;51.094;3.490;2023-07-29T03:40:55;5.97;;;3.60;;
56860;SDS011;42744;51.094;3.490;2023-07-29T03:43:21;5.30;;;3.50;;
56860;SDS011;42744;51.094;3.490;2023-07-29T03:45:47;5.47;;;3.50;;
56860;SDS011;42744;51.094;3.490;2023-07-29T03:48:13;7.60;;;3.37;;
56860;SDS011;42744;51.094;3.490;2023-07-29T03:50:39;6.07;;;3.23;;
56860;SDS011;42744;51.094;3.490;2023-07-29T03:53:05;5.30;;;3.30;;
56860;SDS011;42744;51.094;3.490;2023-07-29T03:55:31;4.57;;;3.00;;
56860;SDS011;42744;51.094;3.490;2023-07-29T03:57:58;7.03;;;2.70;;
56860;SDS011;42744;51.094;3.490;2023-07-29T04:00:25;5.40;;;3.30;;
56860;SDS011;42744;51.094;3.490;2023-07-29T04:02:52;5.60;;;3.33;;
56860;SDS011;42744;51.094;3.490;2023-07-29T04:05:18;6.73;;;3.53;;
56860;SDS011;42744;51.094;3.490;2023-07-29T04:07:44;6.63;;;3.87;;
56860;SDS011;42744;51.094;3.490;2023-07-29T04:10:14;5.17;;;3.17;;
56860;SDS011;42744;51.094;3.490;2023-07-29T04:12:40;6.30;;;3.07;;
56860;SDS011;42744;51.094;3.490;2023-07-29T04:15:06;5.43;;;3.13;;
56860;SDS011;42744;51.094;3.490;2023-07-29T04:17:32;7.07;;;3.40;;
56860;SDS011;42744;51.094;3.490;2023-07-29T04:19:58;4.20;;;3.60;;
56860;SDS011;42744;51.094;3.490;2023-07-29T04:22:25;6.47;;;3.83;;
56860;SDS011;42744;51.094;3.490;2023-07-29T04:24:51;4.40;;;3.37;;
56860;SDS011;42744;51.094;3.490;2023-07-29T04:27:17;5.93;;;3.63;;
56860;SDS011;42744;51.094;3.490;2023-07-29T04:29:43;3.53;;;2.87;;
56860;SDS011;42744;51.094;3.490;2023-07-29T04:32:09;4.90;;;3.50;;
56860;SDS011;42744;51.094;3.490;2023-07-29T04:34:35;7.77;;;3.30;;
56860;SDS011;42744;51.094;3.490;2023-07-29T04:37:01;5.03;;;3.60;;
56860;SDS011;42744;51.094;3.490;2023-07-29T04:39:27;5.87;;;3.77;;
56860;SDS011;42744;51.094;3.490;2023-07-29T04:41:53;5.33;;;3.33;;
56860;SDS011;42744;51.094;3.490;2023-07-29T04:44:19;6.57;;;3.93;;
56860;SDS011;42744;51.094;3.490;2023-07-29T04:46:45;6.97;;;3.60;;
56860;SDS011;42744;51.094;3.490;2023-07-29T04:49:11;6.57;;;3.73;;
56860;SDS011;42744;51.094;3.490;2023-07-29T04:51:37;4.60;;;3.43;;
56860;SDS011;42744;51.094;3.490;2023-07-29T04:54:03;4.13;;;3.03;;
56860;SDS011;42744;51.094;3.490;2023-07-29T04:56:29;5.23;;;3.27;;
56860;SDS011;42744;51.094;3.490;2023-07-29T04:58:55;6.33;;;3.03;;
56860;SDS011;42744;51.094;3.490;2023-07-29T05:01:22;6.00;;;3.97;;
56860;SDS011;42744;51.094;3.490;2023-07-29T05:03:47;8.07;;;3.50;;
56860;SDS011;42744;51.094;3.490;2023-07-29T05:06:13;6.33;;;3.17;;
56860;SDS011;42744;51.094;3.490;2023-07-29T05:08:40;4.57;;;3.73;;
56860;SDS011;42744;51.094;3.490;2023-07-29T05:11:05;4.07;;;3.10;;
56860;SDS011;42744;51.094;3.490;2023-07-29T05:13:31;4.63;;;3.00;;
56860;SDS011;42744;51.094;3.490;2023-07-29T05:15:58;5.00;;;3.27;;
56860;SDS011;42744;51.094;3.490;2023-07-29T05:18:23;6.27;;;3.77;;
56860;SDS011;42744;51.094;3.490;2023-07-29T05:20:49;5.97;;;3.77;;
56860;SDS011;42744;51.094;3.490;2023-07-29T05:23:16;6.07;;;4.07;;
56860;SDS011;42744;51.094;3.490;2023-07-29T05:25:42;5.70;;;3.33;;
56860;SDS011;42744;51.094;3.490;2023-07-29T05:28:07;7.60;;;3.87;;
56860;SDS011;42744;51.094;3.490;2023-07-29T05:30:34;4.90;;;2.93;;
56860;SDS011;42744;51.094;3.490;2023-07-29T05:33:03;4.50;;;3.10;;
56860;SDS011;42744;51.094;3.490;2023-07-29T05:35:38;4.93;;;3.30;;
56860;SDS011;42744;51.094;3.490;2023-07-29T05:38:05;6.57;;;4.03;;
56860;SDS011;42744;51.094;3.490;2023-07-29T05:40:33;6.80;;;3.33;;
56860;SDS011;42744;51.094;3.490;2023-07-29T05:43:00;5.00;;;3.40;;
56860;SDS011;42744;51.094;3.490;2023-07-29T05:45:25;6.97;;;3.77;;
56860;SDS011;42744;51.094;3.490;2023-07-29T05:47:51;4.00;;;3.33;;
56860;SDS011;42744;51.094;3.490;2023-07-29T05:50:19;6.87;;;4.13;;
56860;SDS011;42744;51.094;3.490;2023-07-29T05:52:46;5.53;;;3.93;;
56860;SDS011;42744;51.094;3.490;2023-07-29T05:55:11;4.20;;;3.80;;
56860;SDS011;42744;51.094;3.490;2023-07-29T05:57:38;8.67;;;4.20;;
56860;SDS011;42744;51.094;3.490;2023-07-29T06:00:06;5.23;;;4.10;;
56860;SDS011;42744;51.094;3.490;2023-07-29T06:02:38;5.57;;;4.80;;
56860;SDS011;42744;51.094;3.490;2023-07-29T06:05:06;4.77;;;4.27;;
56860;SDS011;42744;51.094;3.490;2023-07-29T06:07:32;5.83;;;4.50;;
56860;SDS011;42744;51.094;3.490;2023-07-29T06:09:59;6.13;;;4.67;;
56860;SDS011;42744;51.094;3.490;2023-07-29T06:12:26;5.37;;;4.40;;
56860;SDS011;42744;51.094;3.490;2023-07-29T06:14:52;6.70;;;4.47;;
56860;SDS011;42744;51.094;3.490;2023-07-29T06:17:18;7.57;;;4.17;;
56860;SDS011;42744;51.094;3.490;2023-07-29T06:19:45;5.33;;;4.83;;
56860;SDS011;42744;51.094;3.490;2023-07-29T06:22:10;6.43;;;4.17;;
56860;SDS011;42744;51.094;3.490;2023-07-29T06:24:36;6.83;;;3.53;;
56860;SDS011;42744;51.094;3.490;2023-07-29T06:27:03;4.60;;;3.40;;
56860;SDS011;42744;51.094;3.490;2023-07-29T06:29:28;4.00;;;3.60;;
56860;SDS011;42744;51.094;3.490;2023-07-29T06:31:54;4.90;;;3.53;;
56860;SDS011;42744;51.094;3.490;2023-07-29T06:34:20;4.23;;;3.20;;
56860;SDS011;42744;51.094;3.490;2023-07-29T06:36:47;5.13;;;3.33;;
56860;SDS011;42744;51.094;3.490;2023-07-29T06:39:13;5.80;;;3.20;;
56860;SDS011;42744;51.094;3.490;2023-07-29T06:41:39;10.93;;;3.13;;
56860;SDS011;42744;51.094;3.490;2023-07-29T06:44:05;4.20;;;2.83;;
56860;SDS011;42744;51.094;3.490;2023-07-29T06:46:31;3.00;;;2.60;;
56860;SDS011;42744;51.094;3.490;2023-07-29T06:48:57;4.17;;;2.67;;
56860;SDS011;42744;51.094;3.490;2023-07-29T06:51:23;3.07;;;2.57;;
56860;SDS011;42744;51.094;3.490;2023-07-29T06:53:49;5.97;;;2.90;;
56860;SDS011;42744;51.094;3.490;2023-07-29T06:56:15;3.23;;;2.60;;
56860;SDS011;42744;51.094;3.490;2023-07-29T06:58:41;4.47;;;2.43;;
56860;SDS011;42744;51.094;3.490;2023-07-29T07:01:07;5.70;;;2.60;;
56860;SDS011;42744;51.094;3.490;2023-07-29T07:03:33;4.23;;;2.67;;
56860;SDS011;42744;51.094;3.490;2023-07-29T07:06:05;3.37;;;2.40;;
56860;SDS011;42744;51.094;3.490;2023-07-29T07:08:31;6.97;;;2.93;;
56860;SDS011;42744;51.094;3.490;2023-07-29T07:10:57;3.43;;;2.33;;
56860;SDS011;42744;51.094;3.490;2023-07-29T07:13:23;5.40;;;2.43;;
56860;SDS011;42744;51.094;3.490;2023-07-29T07:15:49;3.17;;;2.00;;
56860;SDS011;42744;51.094;3.490;2023-07-29T07:18:15;3.43;;;2.10;;
56860;SDS011;42744;51.094;3.490;2023-07-29T07:20:41;2.47;;;1.87;;
56860;SDS011;42744;51.094;3.490;2023-07-29T07:23:07;3.77;;;2.07;;
56860;SDS011;42744;51.094;3.490;2023-07-29T07:25:36;2.53;;;1.60;;
56860;SDS011;42744;51.094;3.490;2023-07-29T07:28:02;4.93;;;2.47;;
56860;SDS011;42744;51.094;3.490;2023-07-29T07:30:28;3.57;;;1.40;;
56860;SDS011;42744;51.094;3.490;2023-07-29T07:32:54;3.87;;;1.93;;
56860;SDS011;42744;51.094;3.490;2023-07-29T07:35:20;2.50;;;1.70;;
56860;SDS011;42744;51.094;3.490;2023-07-29T07:37:46;2.57;;;2.10;;
56860;SDS011;42744;51.094;3.490;2023-07-29T07:40:12;2.87;;;1.70;;
56860;SDS011;42744;51.094;3.490;2023-07-29T07:42:38;3.23;;;1.80;;
56860;SDS011;42744;51.094;3.490;2023-07-29T07:45:04;2.73;;;1.70;;
56860;SDS011;42744;51.094;3.490;2023-07-29T07:47:31;2.00;;;1.80;;
56860;SDS011;42744;51.094;3.490;2023-07-29T07:49:56;2.43;;;1.60;;
56860;SDS011;42744;51.094;3.490;2023-07-29T07:52:22;2.83;;;1.80;;
56860;SDS011;42744;51.094;3.490;2023-07-29T07:54:52;3.63;;;1.80;;
56860;SDS011;42744;51.094;3.490;2023-07-29T07:57:19;2.83;;;1.60;;
56860;SDS011;42744;51.094;3.490;2023-07-29T07:59:46;2.27;;;1.40;;
56860;SDS011;42744;51.094;3.490;2023-07-29T08:02:13;4.00;;;1.50;;
56860;SDS011;42744;51.094;3.490;2023-07-29T08:04:39;2.17;;;1.50;;
56860;SDS011;42744;51.094;3.490;2023-07-29T08:07:05;3.80;;;1.70;;
56860;SDS011;42744;51.094;3.490;2023-07-29T08:09:31;1.87;;;1.57;;
56860;SDS011;42744;51.094;3.490;2023-07-29T08:11:57;2.20;;;1.70;;
56860;SDS011;42744;51.094;3.490;2023-07-29T08:14:23;2.50;;;1.60;;
56860;SDS011;42744;51.094;3.490;2023-07-29T08:16:49;2.73;;;1.70;;
56860;SDS011;42744;51.094;3.490;2023-07-29T08:19:15;5.20;;;2.30;;
56860;SDS011;42744;51.094;3.490;2023-07-29T08:21:41;2.60;;;2.00;;
56860;SDS011;42744;51.094;3.490;2023-07-29T08:24:06;2.63;;;2.03;;
56860;SDS011;42744;51.094;3.490;2023-07-29T08:26:33;2.23;;;2.00;;
56860;SDS011;42744;51.094;3.490;2023-07-29T08:28:59;4.70;;;1.97;;
56860;SDS011;42744;51.094;3.490;2023-07-29T08:31:24;3.27;;;2.07;;
56860;SDS011;42744;51.094;3.490;2023-07-29T08:33:51;3.37;;;2.10;;
56860;SDS011;42744;51.094;3.490;2023-07-29T08:36:16;4.87;;;2.30;;
56860;SDS011;42744;51.094;3.490;2023-07-29T08:38:42;3.07;;;2.10;;
56860;SDS011;42744;51.094;3.490;2023-07-29T08:46:38;5.20;;;2.23;;
56860;SDS011;42744;51.094;3.490;2023-07-29T08:49:05;4.63;;;2.60;;
56860;SDS011;42744;51.094;3.490;2023-07-29T08:51:31;3.53;;;2.43;;
56860;SDS011;42744;51.094;3.490;2023-07-29T08:53:58;3.77;;;2.37;;
56860;SDS011;42744;51.094;3.490;2023-07-29T08:56:24;4.53;;;2.10;;
56860;SDS011;42744;51.094;3.490;2023-07-29T08:58:50;4.12;;;2.12;;
56860;SDS011;42744;51.094;3.490;2023-07-29T09:01:18;2.92;;;2.08;;
56860;SDS011;42744;51.094;3.490;2023-07-29T09:03:43;4.35;;;2.00;;
56860;SDS011;42744;51.094;3.490;2023-07-29T09:06:09;3.73;;;2.27;;
56860;SDS011;42744;51.094;3.490;2023-07-29T09:08:37;3.50;;;2.10;;
56860;SDS011;42744;51.094;3.490;2023-07-29T09:11:03;5.00;;;2.60;;
56860;SDS011;42744;51.094;3.490;2023-07-29T09:13:29;3.95;;;2.58;;
56860;SDS011;42744;51.094;3.490;2023-07-29T09:15:57;3.55;;;2.12;;
56860;SDS011;42744;51.094;3.490;2023-07-29T09:18:23;2.67;;;2.28;;
56860;SDS011;42744;51.094;3.490;2023-07-29T09:20:52;4.03;;;2.17;;
56860;SDS011;42744;51.094;3.490;2023-07-29T09:23:18;3.67;;;2.27;;
56860;SDS011;42744;51.094;3.490;2023-07-29T09:25:47;3.80;;;2.50;;
56860;SDS011;42744;51.094;3.490;2023-07-29T09:28:15;4.40;;;2.53;;
56860;SDS011;42744;51.094;3.490;2023-07-29T09:30:57;2.53;;;2.20;;
56860;SDS011;42744;51.094;3.490;2023-07-29T09:33:28;5.30;;;2.93;;
56860;SDS011;42744;51.094;3.490;2023-07-29T09:36:18;2.90;;;2.30;;
56860;SDS011;42744;51.094;3.490;2023-07-29T09:38:46;3.77;;;2.37;;
56860;SDS011;42744;51.094;3.490;2023-07-29T09:41:15;3.67;;;2.77;;
56860;SDS011;42744;51.094;3.490;2023-07-29T09:43:41;6.87;;;2.77;;
56860;SDS011;42744;51.094;3.490;2023-07-29T09:46:06;4.23;;;2.63;;
56860;SDS011;42744;51.094;3.490;2023-07-29T09:48:38;4.70;;;2.53;;
56860;SDS011;42744;51.094;3.490;2023-07-29T09:51:10;4.00;;;2.67;;
56860;SDS011;42744;51.094;3.490;2023-07-29T09:53:42;5.77;;;2.43;;
56860;SDS011;42744;51.094;3.490;2023-07-29T09:56:12;3.70;;;2.27;;
56860;SDS011;42744;51.094;3.490;2023-07-29T09:58:39;3.03;;;1.73;;
56860;SDS011;42744;51.094;3.490;2023-07-29T10:01:05;3.13;;;1.80;;
56860;SDS011;42744;51.094;3.490;2023-07-29T10:03:33;1.83;;;1.33;;
56860;SDS011;42744;51.094;3.490;2023-07-29T10:06:04;2.17;;;1.67;;
56860;SDS011;42744;51.094;3.490;2023-07-29T10:08:32;1.57;;;1.30;;
56860;SDS011;42744;51.094;3.490;2023-07-29T10:11:07;2.70;;;1.37;;
56860;SDS011;42744;51.094;3.490;2023-07-29T10:13:34;1.77;;;1.17;;
56860;SDS011;42744;51.094;3.490;2023-07-29T10:16:01;2.33;;;1.43;;
56860;SDS011;42744;51.094;3.490;2023-07-29T10:18:28;2.07;;;1.63;;
56860;SDS011;42744;51.094;3.490;2023-07-29T10:20:58;1.67;;;1.30;;
56860;SDS011;42744;51.094;3.490;2023-07-29T10:23:26;2.47;;;1.33;;
56860;SDS011;42744;51.094;3.490;2023-07-29T10:25:59;1.70;;;1.60;;
56860;SDS011;42744;51.094;3.490;2023-07-29T10:28:29;1.60;;;1.30;;
56860;SDS011;42744;51.094;3.490;2023-07-29T10:30:56;1.90;;;1.53;;
56860;SDS011;42744;51.094;3.490;2023-07-29T10:33:23;1.83;;;1.60;;
56860;SDS011;42744;51.094;3.490;2023-07-29T10:35:50;3.10;;;1.83;;
56860;SDS011;42744;51.094;3.490;2023-07-29T10:38:18;2.90;;;1.73;;
56860;SDS011;42744;51.094;3.490;2023-07-29T10:40:56;2.40;;;1.83;;
56860;SDS011;42744;51.094;3.490;2023-07-29T10:43:25;1.87;;;1.67;;
56860;SDS011;42744;51.094;3.490;2023-07-29T10:45:51;2.60;;;2.27;;
56860;SDS011;42744;51.094;3.490;2023-07-29T10:48:39;5.40;;;2.50;;
56860;SDS011;42744;51.094;3.490;2023-07-29T10:51:23;4.23;;;2.20;;
56860;SDS011;42744;51.094;3.490;2023-07-29T10:53:58;2.93;;;2.10;;
56860;SDS011;42744;51.094;3.490;2023-07-29T10:56:32;3.97;;;2.13;;
56860;SDS011;42744;51.094;3.490;2023-07-29T10:59:02;2.33;;;2.13;;
56860;SDS011;42744;51.094;3.490;2023-07-29T11:01:38;2.30;;;2.07;;
56860;SDS011;42744;51.094;3.490;2023-07-29T11:15:18;2.50;;;2.30;;
56860;SDS011;42744;51.094;3.490;2023-07-29T11:20:32;2.78;;;2.08;;
56860;SDS011;42744;51.094;3.490;2023-07-29T11:22:59;3.12;;;2.08;;
56860;SDS011;42744;51.094;3.490;2023-07-29T11:25:27;2.00;;;1.80;;
56860;SDS011;42744;51.094;3.490;2023-07-29T11:27:55;3.25;;;2.33;;
56860;SDS011;42744;51.094;3.490;2023-07-29T11:30:22;2.10;;;1.73;;
56860;SDS011;42744;51.094;3.490;2023-07-29T11:32:48;6.45;;;2.37;;
56860;SDS011;42744;51.094;3.490;2023-07-29T11:35:16;6.43;;;2.40;;
56860;SDS011;42744;51.094;3.490;2023-07-29T11:37:47;2.50;;;1.90;;
56860;SDS011;42744;51.094;3.490;2023-07-29T11:40:21;2.15;;;1.65;;
56860;SDS011;42744;51.094;3.490;2023-07-29T11:42:49;3.97;;;1.70;;
56860;SDS011;42744;51.094;3.490;2023-07-29T11:45:20;2.35;;;1.40;;
56860;SDS011;42744;51.094;3.490;2023-07-29T11:47:50;1.62;;;1.40;;
56860;SDS011;42744;51.094;3.490;2023-07-29T11:50:15;3.40;;;1.27;;
56860;SDS011;42744;51.094;3.490;2023-07-29T11:52:42;4.53;;;1.83;;
56860;SDS011;42744;51.094;3.490;2023-07-29T11:55:11;3.58;;;1.65;;
56860;SDS011;42744;51.094;3.490;2023-07-29T11:57:38;5.28;;;1.90;;
56860;SDS011;42744;51.094;3.490;2023-07-29T12:00:06;2.08;;;1.60;;
56860;SDS011;42744;51.094;3.490;2023-07-29T12:02:36;2.60;;;1.80;;
56860;SDS011;42744;51.094;3.490;2023-07-29T12:05:09;4.82;;;1.70;;
56860;SDS011;42744;51.094;3.490;2023-07-29T12:07:40;3.62;;;1.70;;
56860;SDS011;42744;51.094;3.490;2023-07-29T12:10:07;2.90;;;1.62;;
56860;SDS011;42744;51.094;3.490;2023-07-29T12:12:50;1.62;;;1.37;;
56860;SDS011;42744;51.094;3.490;2023-07-29T12:15:22;3.20;;;1.70;;
56860;SDS011;42744;51.094;3.490;2023-07-29T12:17:52;1.85;;;1.23;;
56860;SDS011;42744;51.094;3.490;2023-07-29T12:20:21;2.00;;;0.90;;
56860;SDS011;42744;51.094;3.490;2023-07-29T12:22:55;4.10;;;1.17;;
56860;SDS011;42744;51.094;3.490;2023-07-29T12:25:22;1.60;;;1.12;;
56860;SDS011;42744;51.094;3.490;2023-07-29T12:27:49;1.62;;;1.20;;
56860;SDS011;42744;51.094;3.490;2023-07-29T12:30:15;1.52;;;0.95;;
56860;SDS011;42744;51.094;3.490;2023-07-29T12:32:44;3.58;;;1.08;;
56860;SDS011;42744;51.094;3.490;2023-07-29T12:35:11;2.37;;;0.82;;
56860;SDS011;42744;51.094;3.490;2023-07-29T12:37:37;1.92;;;1.10;;
56860;SDS011;42744;51.094;3.490;2023-07-29T12:40:07;1.00;;;0.90;;
56860;SDS011;42744;51.094;3.490;2023-07-29T12:42:50;1.75;;;1.00;;
56860;SDS011;42744;51.094;3.490;2023-07-29T12:45:17;1.05;;;0.80;;
56860;SDS011;42744;51.094;3.490;2023-07-29T12:47:43;3.40;;;1.30;;
56860;SDS011;42744;51.094;3.490;2023-07-29T12:50:09;1.95;;;1.30;;
56860;SDS011;42744;51.094;3.490;2023-07-29T12:52:36;4.00;;;0.90;;
56860;SDS011;42744;51.094;3.490;2023-07-29T12:55:01;1.37;;;1.10;;
56860;SDS011;42744;51.094;3.490;2023-07-29T12:57:28;4.12;;;1.12;;
56860;SDS011;42744;51.094;3.490;2023-07-29T12:59:54;1.65;;;1.00;;
56860;SDS011;42744;51.094;3.490;2023-07-29T13:02:20;1.80;;;1.23;;
56860;SDS011;42744;51.094;3.490;2023-07-29T13:04:46;2.30;;;1.10;;
56860;SDS011;42744;51.094;3.490;2023-07-29T13:07:12;1.52;;;1.17;;
56860;SDS011;42744;51.094;3.490;2023-07-29T13:09:38;1.70;;;1.30;;
56860;SDS011;42744;51.094;3.490;2023-07-29T13:12:04;8.25;;;1.90;;
56860;SDS011;42744;51.094;3.490;2023-07-29T13:14:30;9.27;;;2.75;;
56860;SDS011;42744;51.094;3.490;2023-07-29T13:16:56;6.20;;;1.60;;
56860;SDS011;42744;51.094;3.490;2023-07-29T13:19:22;3.67;;;1.77;;
56860;SDS011;42744;51.094;3.490;2023-07-29T13:21:48;4.43;;;1.98;;
56860;SDS011;42744;51.094;3.490;2023-07-29T13:24:14;5.62;;;2.22;;
56860;SDS011;42744;51.094;3.490;2023-07-29T13:26:40;3.28;;;1.95;;
56860;SDS011;42744;51.094;3.490;2023-07-29T13:29:07;3.67;;;1.77;;
56860;SDS011;42744;51.094;3.490;2023-07-29T13:31:33;2.45;;;1.98;;
56860;SDS011;42744;51.094;3.490;2023-07-29T13:33:59;3.08;;;1.80;;
56860;SDS011;42744;51.094;3.490;2023-07-29T13:36:25;4.78;;;2.20;;
56860;SDS011;42744;51.094;3.490;2023-07-29T13:38:51;4.30;;;1.77;;
56860;SDS011;42744;51.094;3.490;2023-07-29T13:41:17;2.12;;;1.50;;
56860;SDS011;42744;51.094;3.490;2023-07-29T13:43:43;2.50;;;1.27;;
56860;SDS011;42744;51.094;3.490;2023-07-29T13:46:09;1.65;;;1.10;;
56860;SDS011;42744;51.094;3.490;2023-07-29T13:48:35;3.17;;;0.88;;
56860;SDS011;42744;51.094;3.490;2023-07-29T13:51:01;1.60;;;0.80;;
56860;SDS011;42744;51.094;3.490;2023-07-29T13:53:27;2.05;;;0.70;;
56860;SDS011;42744;51.094;3.490;2023-07-29T13:55:56;0.90;;;0.70;;
56860;SDS011;42744;51.094;3.490;2023-07-29T13:58:25;0.75;;;0.62;;
56860;SDS011;42744;51.094;3.490;2023-07-29T14:00:51;1.00;;;0.62;;
56860;SDS011;42744;51.094;3.490;2023-07-29T14:03:17;0.73;;;0.50;;
56860;SDS011;42744;51.094;3.490;2023-07-29T14:05:43;0.73;;;0.45;;
56860;SDS011;42744;51.094;3.490;2023-07-29T14:08:09;2.47;;;0.57;;
56860;SDS011;42744;51.094;3.490;2023-07-29T14:10:35;0.75;;;0.40;;
56860;SDS011;42744;51.094;3.490;2023-07-29T14:13:01;1.23;;;0.50;;
56860;SDS011;42744;51.094;3.490;2023-07-29T14:15:27;0.57;;;0.40;;
56860;SDS011;42744;51.094;3.490;2023-07-29T14:17:54;1.12;;;0.80;;
56860;SDS011;42744;51.094;3.490;2023-07-29T14:20:19;1.52;;;0.50;;
56860;SDS011;42744;51.094;3.490;2023-07-29T14:22:45;1.00;;;0.50;;
56860;SDS011;42744;51.094;3.490;2023-07-29T14:25:11;1.20;;;0.60;;
56860;SDS011;42744;51.094;3.490;2023-07-29T14:27:39;0.50;;;0.40;;
56860;SDS011;42744;51.094;3.490;2023-07-29T14:30:05;0.60;;;0.60;;
56860;SDS011;42744;51.094;3.490;2023-07-29T14:32:32;1.30;;;0.70;;
56860;SDS011;42744;51.094;3.490;2023-07-29T14:34:58;1.10;;;0.50;;
56860;SDS011;42744;51.094;3.490;2023-07-29T14:37:29;1.05;;;0.60;;
56860;SDS011;42744;51.094;3.490;2023-07-29T14:39:57;0.75;;;0.60;;
56860;SDS011;42744;51.094;3.490;2023-07-29T14:42:23;2.15;;;0.90;;
56860;SDS011;42744;51.094;3.490;2023-07-29T14:44:49;1.48;;;0.70;;
56860;SDS011;42744;51.094;3.490;2023-07-29T14:47:15;2.33;;;0.73;;
56860;SDS011;42744;51.094;3.490;2023-07-29T14:49:41;1.25;;;0.77;;
56860;SDS011;42744;51.094;3.490;2023-07-29T14:52:09;1.67;;;0.80;;
56860;SDS011;42744;51.094;3.490;2023-07-29T14:54:35;1.40;;;0.80;;
56860;SDS011;42744;51.094;3.490;2023-07-29T14:57:01;1.67;;;0.98;;
56860;SDS011;42744;51.094;3.490;2023-07-29T14:59:27;1.95;;;1.33;;
56860;SDS011;42744;51.094;3.490;2023-07-29T15:01:53;3.08;;;0.88;;
56860;SDS011;42744;51.094;3.490;2023-07-29T15:04:19;2.45;;;1.20;;
56860;SDS011;42744;51.094;3.490;2023-07-29T15:06:45;1.67;;;1.08;;
56860;SDS011;42744;51.094;3.490;2023-07-29T15:09:11;3.40;;;1.58;;